< Typhoon 196807 1968 Season Typhoon 196809 >
Typhoon 196808 (ROSE)
General InformationTrack Information on Google Maps || Disaster Info.ResourceGoogle EarthGE AnimationAtom FeedGeoJSON
Detalied Best Track (Time Zone = UTC)
Year Month Day Hour Lat. Long. Pressure (hPa) Wind (kt) Class Image Chart
1968 8 5 00 15.0 141.0 1008 0 2 -- Chart
1968 8 5 06 15.0 140.2 1006 0 2 -- Chart
1968 8 5 12 14.9 139.3 1008 0 2 -- Chart
1968 8 5 18 14.9 138.3 1006 0 2 -- Chart
1968 8 6 00 14.9 137.4 1008 0 2 -- Chart
1968 8 6 06 15.0 136.4 1006 0 2 -- Chart
1968 8 6 12 15.1 135.6 1006 0 2 -- Chart
1968 8 6 18 15.2 134.7 1006 0 2 -- Chart
1968 8 7 00 15.2 133.8 1006 0 2 -- Chart
1968 8 7 06 15.3 132.9 1004 0 2 -- Chart
1968 8 7 12 15.4 132.2 1004 0 2 -- Chart
1968 8 7 18 15.6 131.3 1004 0 2 -- Chart
1968 8 8 00 15.8 130.8 1004 0 2 -- Chart
1968 8 8 06 16.1 129.6 1002 0 2 -- Chart
1968 8 8 12 16.3 128.8 1002 0 2 -- Chart
1968 8 8 18 16.5 128.0 1002 0 2 -- Chart
1968 8 9 00 16.8 127.2 1000 0 2 -- Chart
1968 8 9 06 17.0 126.4 998 0 2 -- Chart
1968 8 9 12 17.2 125.5 998 0 2 -- Chart
1968 8 9 18 17.3 124.6 998 0 2 -- Chart
1968 8 10 00 17.5 123.6 998 0 9 -- Chart
1968 8 10 06 17.7 121.9 992 0 9 -- Chart
1968 8 10 12 18.0 120.2 985 0 9 -- Chart
1968 8 10 18 18.1 118.5 980 0 9 -- Chart
1968 8 11 00 18.3 116.8 975 0 9 -- Chart
1968 8 11 06 18.3 115.5 980 0 9 -- Chart
1968 8 11 12 18.3 114.3 980 0 9 -- Chart
1968 8 11 18 18.5 113.1 975 0 9 -- Chart
1968 8 12 00 18.5 112.0 970 0 9 -- Chart
1968 8 12 06 18.7 111.2 970 0 9 -- Chart
1968 8 12 12 19.1 110.3 980 0 9 -- Chart
1968 8 12 18 19.4 109.4 980 0 9 -- Chart
1968 8 13 00 19.8 108.3 985 0 9 -- Chart
1968 8 13 06 20.1 107.5 985 0 9 -- Chart
1968 8 13 12 20.2 106.4 985 0 9 -- Chart
1968 8 13 18 20.1 105.3 985 0 9 -- Chart
1968 8 14 00 20.0 104.6 990 0 9 -- Chart
1968 8 14 06 20.0 103.9 995 0 2 -- Chart
1968 8 14 12 20.0 103.0 995 0 2 -- Chart
1968 8 14 18 20.0 102.0 1000 0 2 -- Chart
1968 8 15 00 21.0 101.0 1000 0 2 -- Chart
Japan Meteorological Agency Best Track Data | Correction Date : 1989-06-01
< Typhoon 196807 1968 Season Typhoon 196809 >

Help